1990 ISIDORE (1990247N07337)


On this page: IBTrACS data - Map and Plots - Positions - Intensities - Original source data

Summary

Start Sep 4
End Sep 17
Basin NA
LMI 85 kt
Sources hurdat_atl
atcf
In WMO? Yes
Previous storm 1990 MISSING (NI)
Previous in basin 1990 HORTENSE (NA)
Concurrent storms 1990 DOT (WP)
1990 CECIL (WP)
1990 MISSING (NI)
1990 ISIDORE (NA)
1990 ED (WP)
1990 FLO (WP)
1990 MARIE (EP)
1990 NORBERT (EP)
1990 MISSING (EP)
1990 DOT-2 (WP)
Next in basin 1990 MISSING (NA)
Next storm 1990 ED (WP)

top of page IBTrACS Data: File Access

top of page HURSAT Data: File Access

Image of storm

top of page Plots:

Map of storm track will not appear if FTP is down
Time series of cyclone Maximum Sustained Wind will not appear if FTP is down
Time series of cyclone Minimum Central Pressure will not appear if FTP is down

top of page Track Data:Position

hurdat_atl atcf
Date Lat Lon Lat Lon
1990-09-04 00:00:00 7.2 -23.4 7.2 -23.4
1990-09-04 06:00:00 7.4 -25.1 7.4 -25.1
1990-09-04 12:00:00 8.4 -26.7 8.4 -26.7
1990-09-04 18:00:00 9.2 -28.4 9.2 -28.4
1990-09-05 00:00:00 9.7 -29.9 9.7 -29.9
1990-09-05 06:00:00 9.9 -31.4 9.9 -31.4
1990-09-05 12:00:00 10.0 -32.7 10.0 -32.7
1990-09-05 18:00:00 10.4 -33.8 10.4 -33.8
1990-09-06 00:00:00 11.3 -34.7 11.3 -34.7
1990-09-06 06:00:00 12.4 -35.4 12.4 -35.4
1990-09-06 12:00:00 13.5 -36.0 13.5 -36.0
1990-09-06 18:00:00 14.7 -36.4 14.7 -36.4
1990-09-07 00:00:00 15.9 -36.8 15.9 -36.8
1990-09-07 06:00:00 17.2 -37.3 17.2 -37.3
1990-09-07 12:00:00 18.5 -37.6 18.5 -37.6
1990-09-07 18:00:00 19.9 -37.9 19.9 -37.9
1990-09-08 00:00:00 21.1 -38.2 21.1 -38.2
1990-09-08 06:00:00 22.2 -38.7 22.2 -38.7
1990-09-08 12:00:00 23.2 -39.3 23.2 -39.3
1990-09-08 18:00:00 24.3 -40.0 24.3 -40.0
1990-09-09 00:00:00 25.6 -40.7 25.6 -40.7
1990-09-09 06:00:00 26.8 -41.7 26.8 -41.7
1990-09-09 12:00:00 27.9 -43.0 27.9 -43.0
1990-09-09 18:00:00 28.6 -44.2 28.6 -44.2
1990-09-10 00:00:00 29.0 -45.1 29.0 -45.1
hurdat_atl atcf
1990-09-10 06:00:00 29.4 -45.6 29.4 -45.6
1990-09-10 12:00:00 29.8 -46.1 29.8 -46.1
1990-09-10 18:00:00 30.1 -46.6 30.1 -46.6
1990-09-11 00:00:00 30.6 -47.0 30.6 -47.0
1990-09-11 06:00:00 31.2 -47.4 31.2 -47.4
1990-09-11 12:00:00 31.9 -48.0 31.9 -48.0
1990-09-11 18:00:00 32.6 -48.7 32.6 -48.7
1990-09-12 00:00:00 33.1 -49.5 33.1 -49.5
1990-09-12 06:00:00 33.4 -50.1 33.4 -50.1
1990-09-12 12:00:00 33.6 -50.4 33.6 -50.4
1990-09-12 18:00:00 33.8 -50.6 33.8 -50.6
1990-09-13 00:00:00 34.1 -50.7 34.1 -50.7
1990-09-13 06:00:00 34.4 -50.8 34.4 -50.8
1990-09-13 12:00:00 34.9 -50.8 34.9 -50.8
1990-09-13 18:00:00 35.4 -50.6 35.4 -50.6
1990-09-14 00:00:00 35.8 -50.1 35.8 -50.1
1990-09-14 06:00:00 36.2 -49.4 36.2 -49.4
1990-09-14 12:00:00 36.6 -48.7 36.6 -48.7
1990-09-14 18:00:00 37.1 -47.9 37.1 -47.9
1990-09-15 00:00:00 37.8 -47.4 37.8 -47.4
1990-09-15 06:00:00 38.7 -47.2 38.7 -47.2
1990-09-15 12:00:00 39.6 -47.5 39.6 -47.5
1990-09-15 18:00:00 40.3 -48.0 40.3 -48.0
1990-09-16 00:00:00 40.5 -48.5 40.5 -48.5
hurdat_atl atcf
1990-09-16 06:00:00 41.8 -47.9 41.8 -47.9
1990-09-16 12:00:00 43.5 -47.0 43.5 -47.0
1990-09-16 18:00:00 45.0 -45.5 45.0 -45.5
1990-09-17 00:00:00 46.5 -43.5 46.5 -43.5
1990-09-17 06:00:00 48.2 -41.5 48.2 -41.5
1990-09-17 12:00:00 50.0 -39.5 50.0 -39.5

top of pageTrack Data:Intensity

hurdat_atl atcf
Date Wind Pres Wind Pres
1990-09-04 00:00:00 25. 1010. 25. 1010.
1990-09-04 06:00:00 25. 1010. 25. 1010.
1990-09-04 12:00:00 25. 1009. 25. 1009.
1990-09-04 18:00:00 30. 1009. 30. 1009.
1990-09-05 00:00:00 30. 1009. 30. 1009.
1990-09-05 06:00:00 30. 1008. 30. 1008.
1990-09-05 12:00:00 35. 1007. 35. 1007.
1990-09-05 18:00:00 40. 1005. 40. 1005.
1990-09-06 00:00:00 45. 1004. 45. 1004.
1990-09-06 06:00:00 50. 1003. 50. 1003.
1990-09-06 12:00:00 55. 1000. 55. 1000.
1990-09-06 18:00:00 60. 997. 60. 997.
1990-09-07 00:00:00 65. 994. 65. 994.
1990-09-07 06:00:00 75. 983. 75. 983.
1990-09-07 12:00:00 85. 978. 85. 978.
1990-09-07 18:00:00 80. 979. 80. 979.
1990-09-08 00:00:00 75. 979. 75. 979.
1990-09-08 06:00:00 70. 985. 70. 985.
1990-09-08 12:00:00 65. 994. 65. 994.
1990-09-08 18:00:00 60. 996. 60. 996.
1990-09-09 00:00:00 55. 999. 55. 999.
1990-09-09 06:00:00 50. 1000. 50. 1000.
1990-09-09 12:00:00 55. 995. 55. 995.
1990-09-09 18:00:00 65. 990. 65. 990.
1990-09-10 00:00:00 65. 987. 65. 987.
hurdat_atl atcf
1990-09-10 06:00:00 65. 987. 65. 987.
1990-09-10 12:00:00 65. 987. 65. 987.
1990-09-10 18:00:00 65. 987. 65. 987.
1990-09-11 00:00:00 65. 987. 65. 987.
1990-09-11 06:00:00 75. 984. 75. 984.
1990-09-11 12:00:00 80. 980. 80. 980.
1990-09-11 18:00:00 80. 979. 80. 979.
1990-09-12 00:00:00 75. 979. 75. 979.
1990-09-12 06:00:00 75. 980. 75. 980.
1990-09-12 12:00:00 70. 986. 70. 986.
1990-09-12 18:00:00 65. 987. 65. 987.
1990-09-13 00:00:00 65. 987. 65. 987.
1990-09-13 06:00:00 65. 987. 65. 987.
1990-09-13 12:00:00 65. 987. 65. 987.
1990-09-13 18:00:00 65. 987. 65. 987.
1990-09-14 00:00:00 65. 987. 65. 987.
1990-09-14 06:00:00 65. 987. 65. 987.
1990-09-14 12:00:00 65. 987. 65. 987.
1990-09-14 18:00:00 65. 987. 65. 987.
1990-09-15 00:00:00 65. 987. 65. 987.
1990-09-15 06:00:00 65. 987. 65. 987.
1990-09-15 12:00:00 65. 987. 65. 987.
1990-09-15 18:00:00 65. 987. 65. 987.
1990-09-16 00:00:00 65. 987. 65. 987.
hurdat_atl atcf
1990-09-16 06:00:00 60. 990. 60. 990.
1990-09-16 12:00:00 55. 995. 55. 995.
1990-09-16 18:00:00 45. 997. 45. 997.
1990-09-17 00:00:00 45. 1000. 45. 1000.
1990-09-17 06:00:00 35. 1005. 35. 1005.
1990-09-17 12:00:00 35. 1006. 35. 1006.

top of page Links to source data

Source Source file Format
hurdat_atl tracks1851to2011.txt:1175:ISIDORE HURDAT
atcf bal101990.dat ATCF